McLean, TX (79057)

1:30 AM CDT on July 26, 2016 (GMT -0500)
WT_Meso | | Change Station

Elev 2862 ft 35.24 °N, 100.57 °W | Updated 35 minutes ago

Scattered Clouds
Scattered Clouds
77 °F
Feels Like 79 °F
N
6
Wind Variable Wind from ENE
Gusts 8.0 mph

Today
High -- | Low -- °F
--% Chance of Precip.
Yesterday
High -- | Low -- °F
Precip. -- in
Pressure 30.13 in
Visibility 10.0 miles
Clouds Scattered Clouds 5500 ft
Heat Index 79 °F
Dew Point 66 °F
Humidity 70%
Rainfall in
Snow Depth Not available.
6:47 AM 8:50 PM
Waning Gibbous, 58% visible
METAR KPPA 260615Z AUTO 11005KT 10SM SCT055 24/19 A3013 RMK AO2 T02410193 PWINO
Pressure 30.13 in
Visibility 10.0 miles
Clouds Scattered Clouds 5500 ft
Heat Index 79 °F
Dew Point 66 °F
Humidity 70%
Rainfall in
Snow Depth Not available.
6:47 AM 8:50 PM
Waning Gibbous, 58% visible
METAR KPPA 260615Z AUTO 11005KT 10SM SCT055 24/19 A3013 RMK AO2 T02410193 PWINO

10-Day Weather Forecast

Almanac

Astronomy

Jul. 26, 2016 Rise Set
Actual Time
Civil Twilight
Nautical Twilight
Astronomical Twilight
Moon
Length of Visible Light
Length of Day
Tomorrow will be .
, % of the Moon is Illuminated

Today's Extremes

State Highs State Lows

Community

WunderPhotos

Upload Photos

1,927,550 photos uploaded!

WunderBlog® & News

Nearby

Air Quality

  Air Quality AQ Index Pollutant
Not available.

Snow Depth

Station Depth Elevation

Earthquake Activity

City Distance Mag. Time & Date
Minimum magnitude displayed is 2.5.

Coastal Water Temperatures

Place Temperature

Stations

Nearby Weather Stations

Station Location Temp. Windchill Dew Point Humidity Wind Precip. Elev Updated Type
                   

Watches & Warnings

There are currently no watches in effect.